createdAt,value
2022-11-02T00:03:04.834Z,11.97
2022-11-02T00:07:52.143Z,13.13
2022-11-02T00:12:35.687Z,11.33
2022-11-02T00:17:40.270Z,18.83
2022-11-02T00:22:45.925Z,13.20
2022-11-02T00:27:50.867Z,13.53
2022-11-02T00:32:54.323Z,11.50
2022-11-02T00:37:38.463Z,14.33
2022-11-02T00:42:22.534Z,13.80
2022-11-02T00:47:07.504Z,10.57
2022-11-02T00:51:51.135Z,11.53
2022-11-02T00:56:34.884Z,12.50
2022-11-02T01:01:18.503Z,13.10
2022-11-02T01:06:09.633Z,14.97
2022-11-02T01:10:53.115Z,15.30
2022-11-02T01:15:38.343Z,17.90
2022-11-02T01:20:21.866Z,22.57
2022-11-02T01:25:07.213Z,19.77
2022-11-02T01:29:50.727Z,18.80
2022-11-02T01:34:34.270Z,21.87
2022-11-02T01:39:17.865Z,19.33
2022-11-02T01:44:06.047Z,23.00
2022-11-02T01:48:52.913Z,18.03
2022-11-02T01:53:39.198Z,20.00
2022-11-02T01:58:23.004Z,17.57
2022-11-02T02:03:10.547Z,17.07
2022-11-02T02:07:54.958Z,19.33
2022-11-02T02:12:41.283Z,16.27
2022-11-02T02:17:33.925Z,16.70
2022-11-02T02:22:45.885Z,20.13
2022-11-02T02:27:35.890Z,14.43
2022-11-02T02:32:26.486Z,18.43
2022-11-02T02:37:16.086Z,17.10
2022-11-02T02:42:03.431Z,16.50
2022-11-02T02:46:56.289Z,21.23
2022-11-02T02:51:43.300Z,17.50
2022-11-02T02:56:30.266Z,17.03
2022-11-02T03:01:16.025Z,19.43
2022-11-02T03:06:06.369Z,19.97
2022-11-02T03:11:00.701Z,18.27
2022-11-02T03:15:48.246Z,17.47
2022-11-02T03:20:41.016Z,15.07
2022-11-02T03:25:30.309Z,16.67
2022-11-02T03:30:17.360Z,17.70
2022-11-02T03:35:05.637Z,18.13
2022-11-02T03:39:51.885Z,14.70
2022-11-02T03:44:39.602Z,18.30
2022-11-02T03:49:26.469Z,16.37
2022-11-02T03:54:15.086Z,16.10
2022-11-02T03:58:58.722Z,18.20
2022-11-02T04:03:46.985Z,14.27
2022-11-02T04:08:35.629Z,17.77
2022-11-02T04:13:36.556Z,17.57
2022-11-02T04:18:37.424Z,16.23
2022-11-02T04:23:38.351Z,15.17
2022-11-02T04:28:23.639Z,14.20
2022-11-02T04:33:24.735Z,14.17
2022-11-02T04:38:25.732Z,16.27
2022-11-02T04:43:09.293Z,13.43
2022-11-02T04:47:54.403Z,12.40
2022-11-02T04:52:37.929Z,16.73
2022-11-02T04:57:21.511Z,14.47
2022-11-02T05:02:05.135Z,9.43
2022-11-02T05:06:50.279Z,11.97
2022-11-02T05:11:34.550Z,12.10
2022-11-02T05:16:18.560Z,14.47
2022-11-02T05:21:02.988Z,12.63
2022-11-02T05:25:55.595Z,10.67
2022-11-02T05:30:39.039Z,11.77
2022-11-02T05:35:22.751Z,12.60
2022-11-02T05:40:08.844Z,16.13
2022-11-02T05:44:53.677Z,13.30
2022-11-02T05:49:37.133Z,14.87
2022-11-02T05:54:20.603Z,13.63
2022-11-02T05:59:04.171Z,12.60
2022-11-02T06:03:53.167Z,10.93
2022-11-02T06:08:38.816Z,14.10
2022-11-02T06:13:22.432Z,13.07
2022-11-02T06:18:06.104Z,12.57
2022-11-02T06:22:51.305Z,13.70
2022-11-02T06:27:34.829Z,11.90
2022-11-02T06:32:18.279Z,16.67
2022-11-02T06:37:01.946Z,13.33
2022-11-02T06:41:46.991Z,16.00
2022-11-02T06:46:30.711Z,14.83
2022-11-02T06:51:14.760Z,14.00
2022-11-02T06:55:59.510Z,13.10
2022-11-02T07:00:45.364Z,18.10
2022-11-02T07:05:29.157Z,13.60
2022-11-02T07:10:13.675Z,10.57
2022-11-02T07:14:57.554Z,11.47
2022-11-02T07:19:42.655Z,15.73
2022-11-02T07:24:26.336Z,15.77
2022-11-02T07:29:10.001Z,12.77
2022-11-02T07:33:53.720Z,13.63
2022-11-02T07:38:38.882Z,16.20
2022-11-02T07:43:22.536Z,16.10
2022-11-02T07:48:06.440Z,11.93
2022-11-02T07:52:51.509Z,15.83
2022-11-02T07:57:36.665Z,11.10
2022-11-02T08:02:20.477Z,12.40
2022-11-02T08:07:04.255Z,12.27
2022-11-02T08:11:48.349Z,14.93
2022-11-02T08:16:33.312Z,17.27
2022-11-02T08:21:16.885Z,13.07
2022-11-02T08:26:01.574Z,16.70
2022-11-02T08:30:45.418Z,20.37
2022-11-02T08:35:30.348Z,16.60
2022-11-02T08:40:14.194Z,14.60
2022-11-02T08:44:57.776Z,15.77
2022-11-02T08:49:41.629Z,18.50
2022-11-02T08:54:26.579Z,15.73
2022-11-02T08:59:10.470Z,16.93
2022-11-02T09:03:54.100Z,18.20
2022-11-02T09:08:37.673Z,15.60
2022-11-02T09:13:25.680Z,19.57
2022-11-02T09:18:10.222Z,13.93
2022-11-02T09:22:53.758Z,15.67
2022-11-02T09:27:37.316Z,17.33
2022-11-02T09:32:22.235Z,18.67
2022-11-02T09:37:05.725Z,17.63
2022-11-02T09:42:01.247Z,15.20
2022-11-02T09:46:50.679Z,21.63
2022-11-02T09:51:46.383Z,13.30
2022-11-02T09:56:32.387Z,18.43
2022-11-02T10:01:27.559Z,14.33
2022-11-02T10:06:15.929Z,20.37
2022-11-02T10:11:15.239Z,22.30
2022-11-02T10:16:02.581Z,16.47
2022-11-02T10:20:47.526Z,17.90
2022-11-02T10:25:31.288Z,22.47
2022-11-02T10:30:19.563Z,16.97
2022-11-02T10:35:30.058Z,21.57
2022-11-02T10:40:22.279Z,20.27
2022-11-02T10:45:31.329Z,19.93
2022-11-02T10:50:48.678Z,20.47
2022-11-02T10:55:40.577Z,20.23
2022-11-02T11:00:31.940Z,12.00
2022-11-02T11:05:15.813Z,14.23
2022-11-02T11:09:59.812Z,18.03
2022-11-02T11:19:54.005Z,10.87
2022-11-02T11:24:37.999Z,15.03
2022-11-02T11:29:24.410Z,13.07
2022-11-02T11:34:24.283Z,12.97
2022-11-02T11:39:27.367Z,10.63
2022-11-02T11:44:15.779Z,11.83
2022-11-02T11:48:59.968Z,14.80
2022-11-02T11:54:22.110Z,15.40
2022-11-02T11:59:18.238Z,10.03
2022-11-02T12:04:02.407Z,12.67
2022-11-02T12:08:59.009Z,10.60
2022-11-02T12:14:12.222Z,13.17
2022-11-02T12:19:14.500Z,13.07
2022-11-02T12:24:28.992Z,20.13
2022-11-02T12:29:37.550Z,14.73
2022-11-02T12:34:52.872Z,14.53
2022-11-02T12:39:50.594Z,11.27
2022-11-02T12:44:47.104Z,11.40
2022-11-02T12:49:42.766Z,14.43
2022-11-02T12:54:32.332Z,13.07
2022-11-02T12:59:21.130Z,13.53
2022-11-02T13:04:14.780Z,12.00
2022-11-02T13:09:03.262Z,10.43
2022-11-02T13:13:51.072Z,13.23
2022-11-02T13:18:39.448Z,12.00
2022-11-02T13:23:35.907Z,11.57
2022-11-02T13:28:27.818Z,11.50
2022-11-02T13:33:18.793Z,12.83
2022-11-02T13:38:07.386Z,9.93
2022-11-02T13:43:07.476Z,12.37
2022-11-02T13:48:25.212Z,16.27
2022-11-02T13:53:13.653Z,9.53
2022-11-02T13:58:00.297Z,9.37
2022-11-02T14:02:44.972Z,12.17
2022-11-02T14:07:31.135Z,12.70
2022-11-02T14:12:30.480Z,8.43
2022-11-02T14:17:17.368Z,15.65
2022-11-02T14:22:14.945Z,9.82
2022-11-02T14:26:59.484Z,10.13
2022-11-02T14:31:56.960Z,14.43
2022-11-02T14:36:56.168Z,12.40
2022-11-02T14:41:58.570Z,11.30
2022-11-02T14:46:56.943Z,9.63
2022-11-02T14:51:40.578Z,14.03
2022-11-02T14:56:26.327Z,10.63
2022-11-02T15:01:15.928Z,12.97
2022-11-02T15:06:03.563Z,9.87
2022-11-02T15:10:48.377Z,10.43
2022-11-02T15:15:35.480Z,9.80
2022-11-02T15:20:27.788Z,10.93
2022-11-02T15:25:16.789Z,10.13
2022-11-02T15:30:02.683Z,10.00
2022-11-02T15:34:50.483Z,11.93
2022-11-02T15:39:34.412Z,22.50
2022-11-02T15:44:39.227Z,11.40
2022-11-02T15:49:43.530Z,17.03
2022-11-02T15:54:47.676Z,14.73
2022-11-02T16:00:05.261Z,11.90
2022-11-02T16:04:51.545Z,9.63
2022-11-02T16:09:38.760Z,12.50
2022-11-02T16:14:22.920Z,10.13
2022-11-02T16:19:06.555Z,13.00
2022-11-02T16:23:53.355Z,27.70
2022-11-02T16:29:00.822Z,24.83
2022-11-02T16:33:46.670Z,30.73
2022-11-02T16:38:31.042Z,18.53
2022-11-02T16:43:15.648Z,21.77
2022-11-02T16:48:01.831Z,17.83
2022-11-02T16:52:55.443Z,27.17
2022-11-02T16:57:46.471Z,20.37
2022-11-02T17:02:35.935Z,20.00
2022-11-02T17:07:24.820Z,19.17
2022-11-02T17:12:17.083Z,21.80
2022-11-02T17:17:04.778Z,25.93
2022-11-02T17:21:49.489Z,23.63
2022-11-02T17:26:38.494Z,23.80
2022-11-02T17:31:25.460Z,25.77
2022-11-02T17:36:10.264Z,15.73
2022-11-02T17:40:55.285Z,13.67
2022-11-02T17:45:41.015Z,18.80
2022-11-02T17:50:25.523Z,22.30
2022-11-02T17:55:15.357Z,17.67
2022-11-02T17:59:59.070Z,16.53
2022-11-02T18:09:33.904Z,16.97
2022-11-02T18:14:21.987Z,23.20
2022-11-02T18:19:07.206Z,24.10
2022-11-02T18:23:53.287Z,19.73
2022-11-02T18:28:37.191Z,15.23
2022-11-02T18:33:22.081Z,17.60
2022-11-02T18:38:07.187Z,18.20
2022-11-02T18:43:02.482Z,27.63
2022-11-02T18:47:47.631Z,21.03
2022-11-02T18:52:32.956Z,15.50
2022-11-02T18:57:17.797Z,16.97
2022-11-02T19:02:07.671Z,19.33
2022-11-02T19:07:13.836Z,15.80
2022-11-02T19:12:07.598Z,21.70
2022-11-02T19:16:52.245Z,23.50
2022-11-02T19:21:38.232Z,21.33
2022-11-02T19:26:29.251Z,15.27
2022-11-02T19:31:14.224Z,14.10
2022-11-02T19:35:59.314Z,17.13
2022-11-02T19:40:45.092Z,15.73
2022-11-02T19:45:29.559Z,16.17
2022-11-02T19:50:16.184Z,16.33
2022-11-02T19:55:01.954Z,13.67
2022-11-02T19:59:49.524Z,13.50
2022-11-02T20:04:41.033Z,23.83
2022-11-02T20:09:29.812Z,17.50
2022-11-02T20:14:15.501Z,23.50
2022-11-02T20:19:05.397Z,12.93
2022-11-02T20:23:51.258Z,17.43
2022-11-02T20:28:43.192Z,16.87
2022-11-02T20:33:27.583Z,17.43
2022-11-02T20:38:13.437Z,18.50
2022-11-02T20:42:59.051Z,18.77
2022-11-02T20:47:43.683Z,13.80
2022-11-02T20:52:28.196Z,16.20
2022-11-02T20:57:14.288Z,21.67
2022-11-02T21:01:58.509Z,24.10
2022-11-02T21:06:43.089Z,20.43
2022-11-02T21:11:44.184Z,23.27
2022-11-02T21:16:29.805Z,25.57
2022-11-02T21:21:16.099Z,21.50
2022-11-02T21:26:01.467Z,21.37
2022-11-02T21:30:46.104Z,24.40
2022-11-02T21:35:32.000Z,21.13
2022-11-02T21:40:18.359Z,30.27
2022-11-02T21:45:01.879Z,24.23
2022-11-02T21:49:45.821Z,16.57
2022-11-02T21:54:33.801Z,19.20
2022-11-02T21:59:17.371Z,18.47
2022-11-02T22:04:01.170Z,21.17
2022-11-02T22:08:44.753Z,19.57
2022-11-02T22:13:35.804Z,20.03
2022-11-02T22:18:19.410Z,22.77
2022-11-02T22:23:03.097Z,16.30
2022-11-02T22:27:46.821Z,15.27
2022-11-02T22:32:31.740Z,16.97
2022-11-02T22:37:32.789Z,19.87
2022-11-02T22:42:16.929Z,16.70
2022-11-02T22:47:00.538Z,16.47
2022-11-02T22:51:47.296Z,21.23
2022-11-02T22:56:30.895Z,22.83
2022-11-02T23:01:18.047Z,22.20
2022-11-02T23:06:02.182Z,27.10
2022-11-02T23:11:04.579Z,19.93
2022-11-02T23:15:50.844Z,21.43
2022-11-02T23:20:34.478Z,22.17
2022-11-02T23:25:20.265Z,23.53
2022-11-02T23:30:23.127Z,22.30
2022-11-02T23:35:24.815Z,20.63
2022-11-02T23:40:09.739Z,21.77
2022-11-02T23:44:53.739Z,18.00
2022-11-02T23:49:38.813Z,17.70
2022-11-02T23:54:40.408Z,17.83
2022-11-02T23:59:23.982Z,17.83
